Time;durP1;ratioP1;P1;durP2;ratioP2;P2;SDS_P1;SDS_P2;PMS_P1;PMS_P2;Temp;Humidity;BMP_temperature;BMP_pressure;BME280_temperature;BME280_humidity;BME280_pressure;Samples;Min_cycle;Max_cycle;Signal;HPM_P1;HPM_P2
2022/10/14 00:01:33;;;;;;;3.30;1.30;;;;;;;16.68;57.69;99439.63;4974593;28;20253;-86
2022/10/14 00:03:59;;;;;;;9.90;1.03;;;;;;;16.64;57.58;99434.69;4973483;28;20256;-86
2022/10/14 00:06:30;;;;;;;5.40;0.90;;;;;;;16.63;57.71;99428.53;4973530;28;20174;-86
2022/10/14 00:08:58;;;;;;;2.73;1.07;;;;;;;16.59;58.54;99422.59;4973509;28;20273;-86
2022/10/14 00:11:27;;;;;;;9.60;1.27;;;;;;;16.61;58.46;99424.31;4974682;28;20608;-86
2022/10/14 00:13:54;;;;;;;6.33;1.00;;;;;;;16.64;58.46;99429.38;4973423;28;20174;-86
2022/10/14 00:16:29;;;;;;;3.27;0.77;;;;;;;16.66;58.65;99420.38;4974580;28;20177;-86
2022/10/14 00:18:56;;;;;;;7.23;1.47;;;;;;;16.62;58.83;99420.69;4974894;28;20162;-86
2022/10/14 00:21:21;;;;;;;2.13;0.70;;;;;;;16.64;58.80;99416.16;4973645;28;20176;-86
2022/10/14 00:23:47;;;;;;;4.27;1.00;;;;;;;16.65;58.64;99410.72;4974452;28;20703;-86
2022/10/14 00:26:30;;;;;;;2.70;1.23;;;;;;;16.68;58.82;99414.97;4974235;28;20174;-86
2022/10/14 00:28:56;;;;;;;3.70;0.87;;;;;;;16.67;58.75;99407.97;4973239;28;20682;-86
2022/10/14 00:31:23;;;;;;;3.53;1.00;;;;;;;16.69;58.89;99401.63;4973114;28;20659;-86
2022/10/14 00:33:49;;;;;;;7.30;1.17;;;;;;;16.64;58.99;99413.50;4974175;28;20196;-87
2022/10/14 00:36:17;;;;;;;4.73;1.53;;;;;;;16.70;58.78;99413.03;4973192;28;20279;-86
2022/10/14 00:38:44;;;;;;;3.80;0.70;;;;;;;16.73;58.74;99403.06;4973163;28;20183;-86
2022/10/14 00:41:12;;;;;;;2.47;1.33;;;;;;;16.76;58.43;99399.34;4973160;28;20189;-85
2022/10/14 00:44:06;;;;;;;5.17;0.90;;;;;;;16.76;58.39;99400.22;4973035;28;20276;-86
2022/10/14 00:46:35;;;;;;;5.87;1.40;;;;;;;16.71;58.68;99389.13;4974588;28;20169;-86
2022/10/14 00:49:07;;;;;;;3.20;0.77;;;;;;;16.66;58.65;99387.75;4974668;28;20646;-86
2022/10/14 00:51:34;;;;;;;6.03;1.00;;;;;;;16.61;58.74;99381.97;4978022;28;20227;-86
2022/10/14 00:54:00;;;;;;;3.23;0.50;;;;;;;16.61;58.95;99379.31;4977908;28;20174;-86
2022/10/14 00:56:29;;;;;;;5.13;1.00;;;;;;;16.57;59.10;99374.25;4977874;28;20285;-86
2022/10/14 00:58:56;;;;;;;1.57;0.80;;;;;;;16.61;58.83;99374.03;4977864;28;20527;-86
2022/10/14 01:01:21;;;;;;;3.60;0.67;;;;;;;16.58;59.19;99372.44;4976823;28;20244;-86
2022/10/14 01:03:47;;;;;;;4.63;0.63;;;;;;;16.56;59.21;99364.59;4977972;28;20602;-86
2022/10/14 01:06:50;;;;;;;5.60;1.00;;;;;;;16.41;59.66;99365.69;4977704;28;20182;-86
2022/10/14 01:09:18;;;;;;;8.17;1.13;;;;;;;16.38;59.94;99376.50;4976698;28;20173;-86
2022/10/14 01:12:22;;;;;;;4.07;1.10;;;;;;;16.41;59.83;99360.41;4976625;28;20248;-86
2022/10/14 01:14:53;;;;;;;5.17;0.87;;;;;;;16.51;59.64;99376.44;4977532;28;20533;-86
2022/10/14 01:17:36;;;;;;;3.87;1.07;;;;;;;16.50;59.42;99375.63;4977554;28;20589;-86
2022/10/14 01:20:20;;;;;;;3.40;0.90;;;;;;;16.52;59.13;99367.56;4976529;28;20254;-85
2022/10/14 01:23:07;;;;;;;0.83;0.50;;;;;;;16.54;58.95;99370.97;4976384;28;20678;-86
2022/10/14 01:25:46;;;;;;;1.30;0.50;;;;;;;16.49;59.11;99373.91;4977648;28;20227;-86
2022/10/14 01:28:23;;;;;;;2.00;1.07;;;;;;;16.45;58.99;99380.41;4976414;28;20171;-86
2022/10/14 01:30:59;;;;;;;8.60;1.20;;;;;;;16.39;59.54;99374.69;4977309;28;20199;-86
2022/10/14 01:33:30;;;;;;;6.50;0.93;;;;;;;16.33;59.34;99372.50;4976298;28;20167;-86
2022/10/14 01:36:08;;;;;;;3.17;0.77;;;;;;;16.32;59.03;99371.66;4977199;28;20182;-86
2022/10/14 01:38:43;;;;;;;6.90;1.10;;;;;;;16.23;57.91;99367.03;4977079;28;20186;-86
2022/10/14 01:41:38;;;;;;;3.00;0.87;;;;;;;16.13;57.24;99366.00;4977433;28;20177;-86
2022/10/14 01:44:09;;;;;;;4.50;1.00;;;;;;;16.01;56.48;99364.22;4977286;28;20195;-86
2022/10/14 01:46:39;;;;;;;4.80;1.33;;;;;;;16.04;56.18;99364.00;4977282;28;20176;-86
2022/10/14 01:49:17;;;;;;;1.57;0.73;;;;;;;15.96;55.97;99361.91;4976014;28;20181;-86
2022/10/14 01:51:47;;;;;;;11.73;1.13;;;;;;;15.92;55.97;99359.59;4976258;28;20272;-86
2022/10/14 01:54:19;;;;;;;2.97;0.90;;;;;;;15.89;55.77;99363.31;4977408;28;20194;-86
2022/10/14 01:56:47;;;;;;;3.90;0.90;;;;;;;15.92;55.50;99357.81;4977342;28;20174;-86
2022/10/14 01:59:15;;;;;;;5.10;0.80;;;;;;;15.95;55.09;99356.75;4975787;28;20259;-86
2022/10/14 02:01:41;;;;;;;5.70;1.40;;;;;;;15.93;55.10;99353.38;4975491;28;20178;-86
2022/10/14 02:04:20;;;;;;;2.97;0.97;;;;;;;15.95;54.98;99351.44;4975625;28;20258;-86
2022/10/14 02:06:54;;;;;;;4.67;1.17;;;;;;;15.88;55.18;99345.72;4976931;28;20193;-86
2022/10/14 02:09:43;;;;;;;1.50;0.70;;;;;;;15.81;55.43;99344.50;4976610;28;20603;-86
2022/10/14 02:12:26;;;;;;;7.20;0.93;;;;;;;15.83;55.88;99347.00;4975580;28;20178;-86
2022/10/14 02:15:08;;;;;;;2.23;0.90;;;;;;;15.82;56.72;99338.25;4976755;28;20220;-86
2022/10/14 02:17:41;;;;;;;2.13;1.10;;;;;;;15.72;57.29;99344.31;4975510;28;20193;-86
2022/10/14 02:20:28;;;;;;;5.17;1.00;;;;;;;15.52;56.99;99336.91;4976946;28;20567;-86
2022/10/14 02:22:59;;;;;;;5.73;1.13;;;;;;;15.47;56.27;99336.38;4975352;28;20206;-86
2022/10/14 02:25:30;;;;;;;2.07;0.80;;;;;;;15.55;55.79;99337.53;4976320;28;20192;-86
2022/10/14 02:27:58;;;;;;;1.57;0.50;;;;;;;15.63;55.13;99343.13;4975248;28;20178;-86
2022/10/14 02:30:27;;;;;;;2.50;0.83;;;;;;;15.70;54.81;99340.91;4976339;28;20194;-86
2022/10/14 02:32:56;;;;;;;3.83;0.90;;;;;;;15.57;55.30;99337.41;4976238;28;20169;-86
2022/10/14 02:35:23;;;;;;;3.73;1.10;;;;;;;15.47;55.80;99328.44;4975901;28;20506;-86
2022/10/14 02:37:52;;;;;;;2.57;0.93;;;;;;;15.40;55.96;99330.66;4976047;28;20205;-86
2022/10/14 02:40:34;;;;;;;1.83;0.73;;;;;;;15.30;56.96;99335.69;4975993;28;20184;-86
2022/10/14 02:43:00;;;;;;;3.73;1.47;;;;;;;15.23;57.55;99341.50;4975009;28;20298;-86
2022/10/14 02:45:26;;;;;;;1.33;0.63;;;;;;;15.05;58.16;99335.69;4975956;28;20669;-86
2022/10/14 02:47:52;;;;;;;6.53;1.40;;;;;;;15.00;58.29;99337.81;4975852;28;20185;-86
2022/10/14 02:50:18;;;;;;;4.03;1.27;;;;;;;14.98;57.62;99342.34;4974893;28;20180;-86
2022/10/14 02:52:44;;;;;;;2.37;0.70;;;;;;;14.92;57.15;99340.09;4976008;28;20172;-86
2022/10/14 02:55:09;;;;;;;2.73;1.00;;;;;;;14.84;57.35;99338.91;4976217;28;20176;-86
2022/10/14 02:57:35;;;;;;;2.77;0.93;;;;;;;14.74;57.23;99339.53;4975701;28;20220;-86
2022/10/14 03:00:00;;;;;;;2.43;1.33;;;;;;;14.75;56.75;99337.75;4975699;28;20180;-86
2022/10/14 03:02:26;;;;;;;6.07;0.83;;;;;;;14.86;56.39;99340.50;4974533;28;20223;-86
2022/10/14 03:04:51;;;;;;;1.67;0.67;;;;;;;14.96;56.12;99330.19;4975562;28;20255;-86
2022/10/14 03:07:16;;;;;;;4.47;1.00;;;;;;;14.92;55.73;99337.47;4975751;28;20169;-86
2022/10/14 03:09:42;;;;;;;2.43;1.20;;;;;;;14.83;56.18;99337.25;4974513;28;20180;-86
2022/10/14 03:12:07;;;;;;;2.67;1.00;;;;;;;14.78;56.14;99345.44;4975088;28;20182;-85
2022/10/14 03:14:33;;;;;;;1.70;1.03;;;;;;;14.87;55.95;99339.56;4974393;28;20180;-86
2022/10/14 03:16:58;;;;;;;3.93;0.90;;;;;;;15.01;55.18;99331.59;4974406;28;20181;-86
2022/10/14 03:19:24;;;;;;;1.83;0.90;;;;;;;15.05;54.94;99330.41;4975317;28;20179;-86
2022/10/14 03:21:49;;;;;;;1.63;0.77;;;;;;;14.91;55.65;99329.66;4974251;28;20190;-87
2022/10/14 03:24:14;;;;;;;5.20;1.23;;;;;;;14.80;56.12;99343.56;4974115;28;20218;-87
2022/10/14 03:26:40;;;;;;;3.03;1.10;;;;;;;14.82;56.56;99341.69;4975135;28;20199;-87
2022/10/14 03:29:05;;;;;;;2.93;0.90;;;;;;;14.76;57.26;99336.78;4974089;28;20225;-87
2022/10/14 03:31:31;;;;;;;1.83;0.90;;;;;;;14.76;57.69;99334.16;4974980;28;20247;-86
2022/10/14 03:33:56;;;;;;;4.50;1.00;;;;;;;14.81;57.61;99328.56;4975308;28;20235;-86
2022/10/14 03:36:21;;;;;;;2.63;0.90;;;;;;;14.76;57.96;99334.16;4974363;28;20173;-86
2022/10/14 03:38:47;;;;;;;4.23;1.00;;;;;;;14.84;58.02;99333.63;4975166;28;20641;-86
2022/10/14 03:41:12;;;;;;;2.07;0.93;;;;;;;14.93;57.87;99333.91;4974899;28;20536;-86
2022/10/14 03:43:38;;;;;;;2.97;1.13;;;;;;;14.90;58.42;99331.47;4975323;28;20283;-87
2022/10/14 03:46:03;;;;;;;2.57;1.03;;;;;;;14.86;59.29;99323.84;4973897;28;20168;-86
2022/10/14 03:48:29;;;;;;;3.80;0.97;;;;;;;14.95;59.02;99323.22;4974080;28;20177;-87
2022/10/14 03:50:54;;;;;;;1.87;0.80;;;;;;;14.97;60.08;99323.94;4975076;28;20173;-87
2022/10/14 03:53:19;;;;;;;2.37;0.80;;;;;;;14.88;60.71;99320.16;4973977;28;20526;-87
2022/10/14 03:55:45;;;;;;;1.07;0.50;;;;;;;14.82;60.86;99315.28;4973712;28;20179;-86
2022/10/14 03:58:11;;;;;;;2.73;1.00;;;;;;;14.62;60.07;99326.31;4974632;28;20673;-86
2022/10/14 04:00:36;;;;;;;2.20;0.93;;;;;;;14.48;59.63;99326.38;4974536;28;20173;-86
2022/10/14 04:03:02;;;;;;;3.57;1.23;;;;;;;14.43;59.20;99326.69;4973483;28;20201;-86
2022/10/14 04:05:32;;;;;;;6.00;1.10;;;;;;;14.43;58.19;99328.47;4975041;28;20267;-86
2022/10/14 04:07:59;;;;;;;2.70;0.70;;;;;;;14.47;57.79;99324.66;4973549;28;20202;-87
2022/10/14 04:10:25;;;;;;;1.60;0.80;;;;;;;14.54;57.46;99315.44;4974680;28;20633;-87
2022/10/14 04:12:52;;;;;;;5.83;1.20;;;;;;;14.56;57.22;99310.91;4973387;28;20267;-87
2022/10/14 04:15:17;;;;;;;9.30;0.80;;;;;;;14.59;57.24;99303.63;4973428;28;20724;-86
2022/10/14 04:17:43;;;;;;;1.70;0.60;;;;;;;14.72;56.68;99298.38;4976838;28;20199;-86
2022/10/14 04:20:09;;;;;;;2.93;0.87;;;;;;;14.71;57.01;99299.31;4973324;28;20176;-86
2022/10/14 04:22:34;;;;;;;1.13;0.63;;;;;;;14.80;57.05;99295.22;4971969;28;20180;-86
2022/10/14 04:25:00;;;;;;;2.50;1.10;;;;;;;14.85;57.38;99295.75;4971544;28;20177;-87
2022/10/14 04:27:25;;;;;;;6.83;1.27;;;;;;;14.80;58.46;99296.06;4972229;28;20692;-87
2022/10/14 04:29:52;;;;;;;3.67;0.90;;;;;;;14.71;59.40;99292.25;4972855;28;20204;-86
2022/10/14 04:32:18;;;;;;;2.03;0.77;;;;;;;14.64;60.19;99288.34;4972983;28;20251;-87
2022/10/14 04:34:44;;;;;;;2.93;0.70;;;;;;;14.60;60.35;99293.91;4972914;28;20195;-86
2022/10/14 04:37:10;;;;;;;2.07;0.83;;;;;;;14.58;60.08;99296.66;4973938;28;20180;-87
2022/10/14 04:39:35;;;;;;;5.30;1.10;;;;;;;14.54;59.07;99294.31;4973112;28;20540;-87
2022/10/14 04:42:00;;;;;;;3.07;0.73;;;;;;;14.58;59.02;99295.81;4972962;28;20238;-87
2022/10/14 04:44:26;;;;;;;10.80;1.10;;;;;;;14.60;58.81;99296.53;4974699;28;20662;-87
2022/10/14 04:46:51;;;;;;;2.03;0.80;;;;;;;14.70;58.62;99301.09;4973606;28;20188;-87
2022/10/14 04:49:17;;;;;;;2.60;1.00;;;;;;;14.62;59.34;99299.94;4973507;28;20180;-87
2022/10/14 04:51:42;;;;;;;3.00;0.93;;;;;;;14.55;59.83;99306.56;4974252;28;20186;-87
2022/10/14 04:54:09;;;;;;;1.53;0.73;;;;;;;14.58;59.69;99311.63;4973016;28;20184;-87
2022/10/14 04:56:34;;;;;;;1.60;0.90;;;;;;;14.59;59.11;99308.06;4973011;28;20662;-87
2022/10/14 04:59:00;;;;;;;3.03;1.07;;;;;;;14.62;58.44;99311.31;4973942;28;20192;-88
2022/10/14 05:01:26;;;;;;;3.30;1.07;;;;;;;14.60;58.03;99310.59;4974196;28;20187;-87
2022/10/14 05:03:52;;;;;;;1.07;0.50;;;;;;;14.68;57.91;99308.28;4972814;28;20265;-87
2022/10/14 05:06:17;;;;;;;1.83;0.77;;;;;;;14.89;57.73;99308.63;4973872;28;20255;-88
2022/10/14 05:08:43;;;;;;;2.63;0.53;;;;;;;15.06;57.19;99312.78;4973853;28;20204;-88
2022/10/14 05:11:08;;;;;;;1.77;0.60;;;;;;;15.07;57.10;99307.38;4971253;28;20623;-88
2022/10/14 05:13:34;;;;;;;4.07;0.70;;;;;;;15.07;57.35;99303.91;4972842;28;20168;-88
2022/10/14 05:15:59;;;;;;;1.23;0.50;;;;;;;15.11;57.22;99306.25;4973596;28;20263;-88
2022/10/14 05:18:25;;;;;;;0.70;0.50;;;;;;;15.14;57.44;99299.91;4973805;28;20351;-87
2022/10/14 05:20:50;;;;;;;1.17;0.63;;;;;;;15.17;57.44;99305.81;4972793;28;20177;-88
2022/10/14 05:23:16;;;;;;;1.20;0.60;;;;;;;15.26;57.35;99307.84;4973631;28;20196;-87
2022/10/14 05:25:41;;;;;;;2.20;0.70;;;;;;;15.30;57.31;99311.94;4973008;28;20181;-87
2022/10/14 05:28:07;;;;;;;8.53;0.87;;;;;;;15.44;57.12;99310.97;4973709;28;20181;-87
2022/10/14 05:30:32;;;;;;;1.03;0.57;;;;;;;15.57;56.73;99311.00;4973569;28;20203;-87
2022/10/14 05:32:58;;;;;;;2.30;0.50;;;;;;;15.53;57.16;99304.25;4972707;28;20549;-88
2022/10/14 05:35:23;;;;;;;2.73;0.60;;;;;;;15.56;57.34;99309.34;4973819;28;20176;-87
2022/10/14 05:37:55;;;;;;;4.43;0.60;;;;;;;15.58;57.75;99308.28;4977138;28;20246;-87
2022/10/14 05:40:20;;;;;;;4.33;0.70;;;;;;;15.71;57.69;99309.09;4977151;28;20629;-87
2022/10/14 05:42:46;;;;;;;1.27;0.60;;;;;;;15.77;57.74;99305.19;4977026;28;20201;-87
2022/10/14 05:45:11;;;;;;;4.20;0.80;;;;;;;15.81;58.23;99310.13;4976071;28;20176;-87
2022/10/14 05:47:37;;;;;;;2.77;0.87;;;;;;;15.91;58.31;99312.94;4977195;28;20566;-87
2022/10/14 05:50:03;;;;;;;1.63;0.70;;;;;;;16.00;58.83;99312.31;4976019;28;20576;-87
2022/10/14 05:52:30;;;;;;;3.73;0.83;;;;;;;16.13;59.42;99310.47;4975915;28;20212;-88
2022/10/14 05:54:56;;;;;;;1.43;0.47;;;;;;;16.22;59.48;99304.50;4977124;28;20263;-88
2022/10/14 05:57:21;;;;;;;1.43;0.70;;;;;;;16.35;59.00;99307.09;4975823;28;20279;-87
2022/10/14 05:59:47;;;;;;;5.37;0.90;;;;;;;16.44;59.14;99307.25;4976779;28;20172;-88
2022/10/14 06:02:13;;;;;;;1.50;0.67;;;;;;;16.46;58.59;99310.63;4975761;28;20309;-87
2022/10/14 06:04:41;;;;;;;3.10;0.30;;;;;;;16.44;58.85;99306.41;4975635;28;20204;-87
2022/10/14 06:07:09;;;;;;;1.67;0.30;;;;;;;16.47;58.70;99308.84;4976609;28;20181;-87
2022/10/14 06:09:36;;;;;;;1.77;0.60;;;;;;;16.56;58.60;99306.38;4976888;28;20179;-87
2022/10/14 06:12:02;;;;;;;1.93;0.80;;;;;;;16.67;58.59;99317.97;4976742;28;20177;-88
2022/10/14 06:14:28;;;;;;;1.33;0.60;;;;;;;16.77;58.10;99319.00;4975520;28;20182;-88
2022/10/14 06:16:53;;;;;;;0.97;0.40;;;;;;;16.85;58.59;99314.78;4975474;28;20190;-88
2022/10/14 06:19:19;;;;;;;1.77;0.70;;;;;;;17.58;59.43;99309.19;4975460;28;20186;-88
2022/10/14 06:21:45;;;;;;;1.83;0.80;;;;;;;18.70;53.44;99300.91;4976373;28;20547;-87
2022/10/14 06:24:11;;;;;;;3.93;0.60;;;;;;;19.43;49.74;99294.69;4976231;28;20214;-87
2022/10/14 06:26:37;;;;;;;1.57;0.63;;;;;;;20.12;48.74;99295.66;4976250;28;20176;-87
2022/10/14 06:29:03;;;;;;;1.47;0.50;;;;;;;20.67;46.50;99291.53;4976224;28;20184;-87
2022/10/14 06:31:29;;;;;;;2.37;0.50;;;;;;;20.67;46.06;99291.53;4975083;28;20202;-87
2022/10/14 06:33:55;;;;;;;4.83;0.73;;;;;;;20.36;46.50;99293.47;4975161;28;20189;-88
2022/10/14 06:36:21;;;;;;;1.20;0.40;;;;;;;20.09;46.79;99296.78;4975103;28;20223;-88
2022/10/14 06:38:47;;;;;;;3.03;0.70;;;;;;;20.03;47.28;99302.63;4976076;28;20621;-88
2022/10/14 06:41:13;;;;;;;1.60;0.37;;;;;;;19.92;47.09;99300.06;4976268;28;20686;-88
2022/10/14 06:43:39;;;;;;;2.27;0.70;;;;;;;19.76;47.55;99313.03;4974908;28;20296;-88
2022/10/14 06:46:05;;;;;;;1.40;0.57;;;;;;;19.54;47.78;99313.22;4976161;28;20255;-88
2022/10/14 06:48:31;;;;;;;1.73;0.77;;;;;;;19.36;48.78;99306.81;4975476;28;20255;-89
2022/10/14 06:51:01;;;;;;;1.27;0.70;;;;;;;19.29;49.23;99298.50;4975786;28;20271;-88
2022/10/14 06:53:28;;;;;;;2.53;0.73;;;;;;;19.25;48.81;99297.09;4974821;28;20183;-88
2022/10/14 06:55:59;;;;;;;2.40;0.90;;;;;;;19.40;49.35;99292.28;4975722;28;20208;-88
2022/10/14 06:58:24;;;;;;;6.57;1.83;;;;;;;19.95;49.15;99289.16;4974755;28;20171;-88
2022/10/14 07:00:50;;;;;;;0.83;0.33;;;;;;;20.46;46.28;99296.16;4974684;28;20188;-88
2022/10/14 07:03:16;;;;;;;2.17;0.50;;;;;;;20.99;46.16;99285.91;4974538;28;20208;-89
2022/10/14 07:05:42;;;;;;;1.03;0.30;;;;;;;21.39;45.00;99284.72;4974557;28;20181;-88
2022/10/14 07:08:08;;;;;;;1.07;0.40;;;;;;;21.72;43.85;99295.84;4975493;28;20176;-88
2022/10/14 07:10:34;;;;;;;1.60;0.30;;;;;;;22.00;43.28;99302.91;4974489;28;20545;-88
2022/10/14 07:13:00;;;;;;;1.43;0.37;;;;;;;22.04;43.28;99302.44;4975641;28;20310;-88
2022/10/14 07:15:26;;;;;;;1.13;0.43;;;;;;;22.07;42.91;99293.28;4975601;28;20204;-88
2022/10/14 07:17:52;;;;;;;2.23;0.70;;;;;;;22.01;43.00;99293.91;4975829;28;20175;-88
2022/10/14 07:20:19;;;;;;;4.03;0.97;;;;;;;21.85;43.17;99291.00;4975822;28;20194;-88
2022/10/14 07:22:45;;;;;;;2.97;1.20;;;;;;;21.68;43.57;99294.44;4975158;28;20179;-89
2022/10/14 07:25:11;;;;;;;0.73;0.30;;;;;;;21.54;44.07;99293.09;4975029;28;20247;-88
2022/10/14 07:27:37;;;;;;;2.13;0.63;;;;;;;21.46;44.11;99289.47;4974240;28;20259;-88
2022/10/14 07:30:07;;;;;;;0.30;0.20;;;;;;;21.53;44.96;99291.41;4975100;28;20181;-88
2022/10/14 07:32:35;;;;;;;1.23;0.40;;;;;;;21.55;44.78;99288.59;4974465;28;20286;-89
2022/10/14 07:35:56;;;;;;;3.13;0.50;;;;;;;21.63;44.33;99281.53;4975280;28;20246;-88
2022/10/14 07:38:22;;;;;;;1.50;0.67;;;;;;;21.58;44.72;99280.31;4974126;28;20183;-89
2022/10/14 07:41:02;;;;;;;1.13;0.43;;;;;;;21.76;44.45;99283.88;4974243;28;20180;-88
2022/10/14 07:43:27;;;;;;;2.43;0.53;;;;;;;21.68;44.15;99295.28;4973869;28;20195;-88
2022/10/14 07:45:59;;;;;;;1.53;0.70;;;;;;;21.71;44.85;99283.47;4974868;28;20560;-88
2022/10/14 07:48:26;;;;;;;1.57;0.40;;;;;;;21.79;44.73;99281.75;4973826;28;20172;-88
2022/10/14 07:50:52;;;;;;;1.20;0.43;;;;;;;21.87;44.56;99273.03;4974048;28;20286;-89
2022/10/14 07:53:18;;;;;;;2.80;0.50;;;;;;;22.10;44.17;99266.31;4974982;28;20209;-88
2022/10/14 07:55:51;;;;;;;0.73;0.40;;;;;;;22.23;43.96;99263.25;4973668;28;20195;-87
2022/10/14 07:58:24;;;;;;;0.70;0.27;;;;;;;22.26;44.09;99265.63;4973109;28;20653;-90
2022/10/14 08:00:50;;;;;;;2.93;0.50;;;;;;;22.21;43.44;99260.75;4973436;28;20168;-89
2022/10/14 08:03:17;;;;;;;1.60;0.77;;;;;;;22.32;43.74;99262.38;4974470;28;20674;-90
2022/10/14 08:05:43;;;;;;;3.40;0.53;;;;;;;22.19;44.14;99262.75;4973556;28;20263;-89
2022/10/14 08:08:09;;;;;;;2.57;0.53;;;;;;;22.31;43.20;99264.19;4973520;28;20263;-89
2022/10/14 08:10:36;;;;;;;5.40;1.33;;;;;;;22.43;42.97;99265.63;4974358;28;20242;-90
2022/10/14 08:13:02;;;;;;;1.93;0.90;;;;;;;22.54;43.24;99268.09;4973723;28;20178;-89
2022/10/14 08:15:32;;;;;;;2.63;0.60;;;;;;;22.71;42.75;99258.44;4973686;28;20172;-88
2022/10/14 08:17:57;;;;;;;2.43;0.50;;;;;;;22.64;43.16;99262.72;4973340;28;20180;-89
2022/10/14 08:20:23;;;;;;;0.87;0.23;;;;;;;22.63;42.42;99251.19;4974328;28;20183;-89
2022/10/14 08:22:48;;;;;;;1.50;0.47;;;;;;;22.74;42.79;99258.13;4974515;28;20286;-89
2022/10/14 08:25:20;;;;;;;1.47;0.50;;;;;;;22.69;42.30;99243.53;4973257;28;20259;-89
2022/10/14 08:27:49;;;;;;;1.97;0.37;;;;;;;22.69;42.46;99243.53;4973513;28;20531;-89
2022/10/14 08:30:14;;;;;;;0.67;0.40;;;;;;;22.80;42.55;99246.78;4974194;28;20200;-89
2022/10/14 08:32:40;;;;;;;3.20;0.43;;;;;;;22.92;42.17;99245.56;4973176;28;20227;-89
2022/10/14 08:35:06;;;;;;;1.37;0.40;;;;;;;23.13;41.87;99243.38;4973223;28;20184;-89
2022/10/14 08:37:32;;;;;;;2.00;0.60;;;;;;;23.18;41.24;99250.91;4973186;28;20172;-88
2022/10/14 08:39:57;;;;;;;1.67;0.57;;;;;;;23.26;41.19;99250.97;4974132;28;20187;-89
2022/10/14 08:42:34;;;;;;;2.30;0.57;;;;;;;23.38;40.64;99252.41;4973899;28;20185;-89
2022/10/14 08:45:07;;;;;;;1.50;0.50;;;;;;;23.43;40.02;99247.41;4974663;28;20179;-89
2022/10/14 08:47:40;;;;;;;1.10;0.40;;;;;;;23.58;40.38;99243.16;4973125;28;20246;-88
2022/10/14 08:50:16;;;;;;;1.70;0.87;;;;;;;23.63;40.08;99242.69;4973108;28;20196;-90
2022/10/14 08:52:47;;;;;;;2.00;0.40;;;;;;;23.80;39.32;99236.38;4973630;28;20179;-88
2022/10/14 08:55:42;;;;;;;2.70;0.50;;;;;;;23.66;39.84;99239.69;4974018;28;20161;-89
2022/10/14 08:58:15;;;;;;;2.13;0.43;;;;;;;23.98;39.46;99231.75;4972596;28;20196;-89
2022/10/14 09:00:44;;;;;;;8.80;0.67;;;;;;;24.05;37.96;99234.63;4973954;28;20572;-88
2022/10/14 09:03:32;;;;;;;0.90;0.30;;;;;;;24.01;37.80;99228.75;4972861;28;20196;-88
2022/10/14 09:06:28;;;;;;;1.23;0.40;;;;;;;24.15;37.74;99225.47;4973011;28;20180;-90
2022/10/14 09:08:59;;;;;;;3.27;0.83;;;;;;;24.25;37.48;99226.16;4965171;28;20339;-90
2022/10/14 09:11:27;;;;;;;1.70;0.50;;;;;;;24.34;37.17;99227.03;4975728;28;20168;-89
2022/10/14 09:13:57;;;;;;;1.37;0.30;;;;;;;24.26;36.68;99227.84;4976890;28;20606;-89
2022/10/14 09:16:31;;;;;;;1.13;0.50;;;;;;;24.24;36.19;99223.66;4977845;28;20510;-87
2022/10/14 09:19:00;;;;;;;2.27;0.47;;;;;;;24.25;35.88;99225.31;4976537;28;20717;-90
2022/10/14 09:21:35;;;;;;;2.93;0.53;;;;;;;24.19;36.00;99231.31;4976833;28;20192;-89
2022/10/14 09:24:03;;;;;;;5.83;0.70;;;;;;;24.06;35.41;99228.25;4976419;28;20681;-89
2022/10/14 09:26:39;;;;;;;1.37;0.40;;;;;;;24.10;34.59;99221.59;4976424;28;20187;-89
2022/10/14 09:29:12;;;;;;;1.17;0.33;;;;;;;24.13;34.79;99216.78;4977867;28;20226;-89
2022/10/14 09:31:37;;;;;;;0.60;0.30;;;;;;;24.17;34.62;99223.47;4977504;28;20654;-89
2022/10/14 09:34:03;;;;;;;1.90;1.03;;;;;;;24.28;34.58;99227.66;4977532;28;20176;-90
2022/10/14 09:36:28;;;;;;;2.33;0.57;;;;;;;24.16;34.75;99227.13;4976242;28;20544;-90
2022/10/14 09:38:55;;;;;;;0.80;0.40;;;;;;;24.26;34.96;99221.66;4977443;28;20260;-90
2022/10/14 09:41:29;;;;;;;12.13;1.17;;;;;;;24.41;34.83;99215.47;4976165;28;20638;-89
2022/10/14 09:44:17;;;;;;;3.17;0.50;;;;;;;24.57;34.29;99220.00;4976051;28;20278;-89
2022/10/14 09:46:47;;;;;;;1.27;0.57;;;;;;;24.57;34.23;99220.00;4977036;28;20188;-90
2022/10/14 09:49:17;;;;;;;1.20;0.60;;;;;;;24.54;34.41;99217.66;4977808;28;20169;-90
2022/10/14 09:51:43;;;;;;;3.10;0.70;;;;;;;24.55;35.62;99213.97;4976291;28;20212;-89
2022/10/14 09:54:22;;;;;;;2.67;0.50;;;;;;;24.37;35.06;99210.63;4975949;28;20195;-90
2022/10/14 09:56:48;;;;;;;1.67;0.87;;;;;;;24.58;35.04;99205.56;4975863;28;20238;-89
2022/10/14 09:59:19;;;;;;;1.97;0.97;;;;;;;24.46;35.15;99212.28;4976089;28;20181;-90
2022/10/14 10:01:50;;;;;;;2.53;1.17;;;;;;;24.40;35.13;99203.06;4976837;28;20176;-89
2022/10/14 10:04:31;;;;;;;5.40;0.90;;;;;;;24.29;35.04;99206.06;4976751;28;20274;-89
2022/10/14 10:06:58;;;;;;;3.37;0.50;;;;;;;24.31;35.30;99204.06;4975752;28;20180;-89
2022/10/14 10:09:24;;;;;;;2.57;0.97;;;;;;;24.24;35.81;99204.91;4975661;28;20183;-90
2022/10/14 10:11:50;;;;;;;1.97;0.57;;;;;;;24.32;35.66;99203.06;4976804;28;20187;-89
2022/10/14 10:14:33;;;;;;;2.27;1.20;;;;;;;24.23;36.04;99204.06;4976516;28;20535;-90
2022/10/14 10:17:11;;;;;;;6.10;1.00;;;;;;;24.36;36.05;99199.06;4975824;28;20184;-90
2022/10/14 10:19:43;;;;;;;4.17;1.77;;;;;;;24.53;35.78;99196.38;4975455;28;20646;-90
2022/10/14 10:22:18;;;;;;;1.27;0.70;;;;;;;24.44;35.70;99192.88;4974364;28;20172;-90
2022/10/14 10:25:05;;;;;;;2.03;0.80;;;;;;;24.41;36.09;99190.50;4975604;28;20677;-89
2022/10/14 10:27:35;;;;;;;2.80;0.80;;;;;;;24.54;35.84;99187.31;4968741;28;20549;-90
2022/10/14 10:30:27;;;;;;;1.27;0.70;;;;;;;24.50;36.01;99175.28;4975321;28;20655;-90
2022/10/14 10:33:00;;;;;;;3.33;0.80;;;;;;;24.12;36.61;99171.38;4975188;28;20192;-90
2022/10/14 10:36:05;;;;;;;1.47;0.63;;;;;;;24.30;36.07;99169.41;4976502;28;20171;-90
2022/10/14 10:38:38;;;;;;;47.40;23.57;;;;;;;24.40;36.28;99176.28;4976638;28;20179;-88
2022/10/14 10:41:28;;;;;;;31.77;12.07;;;;;;;24.38;36.02;99170.25;4976357;28;20164;-89
2022/10/14 10:44:12;;;;;;;66.80;31.77;;;;;;;24.40;36.19;99159.34;4976398;28;20196;-90
2022/10/14 10:46:44;;;;;;;10.30;4.83;;;;;;;24.44;35.62;99163.38;4974975;28;20200;-90
2022/10/14 10:49:44;;;;;;;30.60;11.17;;;;;;;24.49;36.05;99153.00;4974980;28;20234;-89
2022/10/14 10:53:06;;;;;;;11.07;4.60;;;;;;;24.55;35.90;99152.34;4974843;28;20180;-89
2022/10/14 10:55:52;;;;;;;3.60;1.90;;;;;;;24.61;35.47;99142.75;4967688;28;20192;-89
2022/10/14 10:58:39;;;;;;;6.13;2.30;;;;;;;24.51;35.46;99150.97;4975925;28;20173;-90
2022/10/14 11:01:17;;;;;;;59.47;22.50;;;;;;;24.64;35.89;99140.56;4974702;28;20180;-89
2022/10/14 11:04:10;;;;;;;8.33;4.20;;;;;;;24.65;35.60;99142.25;4975389;28;20558;-88
2022/10/14 11:12:58;;;;;;;36.03;13.07;;;;;;;24.48;35.42;99135.22;4975971;28;20183;-89
2022/10/14 11:15:51;;;;;;;19.27;7.97;;;;;;;24.43;35.43;99129.53;4975966;28;20175;-89
2022/10/14 11:18:46;;;;;;;18.73;5.00;;;;;;;24.43;35.62;99125.03;4975576;28;20219;-89
2022/10/14 11:21:40;;;;;;;2.47;1.07;;;;;;;24.23;35.37;99118.34;4973032;28;20184;-89
2022/10/14 11:24:33;;;;;;;9.50;2.97;;;;;;;24.39;35.30;99109.47;4975515;28;20343;-89
2022/10/14 11:27:04;;;;;;;9.03;1.10;;;;;;;24.12;35.58;99107.94;4974220;28;20267;-90
2022/10/14 11:29:34;;;;;;;7.77;3.37;;;;;;;24.35;35.92;99103.59;4974172;28;20263;-90
2022/10/14 11:32:24;;;;;;;2.90;1.20;;;;;;;24.37;35.69;99095.41;4975727;28;20516;-89
2022/10/14 11:34:59;;;;;;;5.17;1.13;;;;;;;24.40;36.26;99090.53;4973864;28;20169;-89
2022/10/14 11:37:41;;;;;;;4.33;1.47;;;;;;;24.39;35.68;99088.88;4974604;28;20271;-89
2022/10/14 11:40:25;;;;;;;2.73;1.20;;;;;;;24.49;35.75;99083.31;4974806;28;20176;-89
2022/10/14 11:43:31;;;;;;;3.20;1.07;;;;;;;24.46;35.96;99078.28;4975139;28;20168;-91
2022/10/14 11:46:16;;;;;;;2.33;1.13;;;;;;;24.41;36.08;99070.78;4975004;28;20175;-89
2022/10/14 11:49:00;;;;;;;3.60;1.30;;;;;;;24.46;35.78;99075.63;4973878;28;20168;-90
2022/10/14 11:51:47;;;;;;;2.70;1.17;;;;;;;24.57;35.87;99067.22;4973804;28;20172;-91
2022/10/14 11:54:15;;;;;;;2.63;1.27;;;;;;;24.66;35.46;99066.19;4973728;28;20180;-90
2022/10/14 11:56:49;;;;;;;7.23;1.10;;;;;;;24.54;35.85;99059.53;4974668;28;20268;-89